createdAt,value
2022-08-30T00:00:51.625Z,46.5
2022-08-30T00:03:51.745Z,46.5
2022-08-30T00:06:51.645Z,46.5
2022-08-30T00:09:51.626Z,46.5
2022-08-30T00:12:51.649Z,46.5
2022-08-30T00:15:51.664Z,46.5
2022-08-30T00:18:51.635Z,46.5
2022-08-30T00:21:51.652Z,46.5
2022-08-30T00:24:51.648Z,46.5
2022-08-30T00:27:51.647Z,46.5
2022-08-30T00:30:51.657Z,46.5
2022-08-30T00:33:51.651Z,47
2022-08-30T00:36:51.650Z,47
2022-08-30T00:39:51.632Z,47
2022-08-30T00:42:52.894Z,47
2022-08-30T00:45:51.660Z,47
2022-08-30T00:48:51.642Z,47
2022-08-30T00:51:51.640Z,47
2022-08-30T00:54:51.633Z,47
2022-08-30T00:57:51.644Z,47
2022-08-30T01:00:51.632Z,47
2022-08-30T01:03:51.645Z,47
2022-08-30T01:06:51.651Z,47
2022-08-30T01:09:51.633Z,47
2022-08-30T01:12:51.642Z,47
2022-08-30T01:15:51.674Z,47.5
2022-08-30T01:18:51.640Z,47.5
2022-08-30T01:21:51.653Z,47.5
2022-08-30T01:24:51.639Z,47.5
2022-08-30T01:27:51.657Z,47.5
2022-08-30T01:30:51.707Z,47.5
2022-08-30T01:33:51.654Z,47
2022-08-30T01:36:51.655Z,47
2022-08-30T01:39:51.657Z,47.5
2022-08-30T01:42:51.652Z,47.5
2022-08-30T01:45:51.679Z,47.5
2022-08-30T01:48:54.164Z,47.5
2022-08-30T01:51:51.658Z,48
2022-08-30T01:54:51.654Z,48
2022-08-30T01:57:51.655Z,48
2022-08-30T02:00:51.636Z,48
2022-08-30T02:03:51.761Z,48
2022-08-30T02:06:51.657Z,48
2022-08-30T02:09:51.659Z,48.5
2022-08-30T02:12:51.662Z,48.5
2022-08-30T02:15:51.646Z,48.5
2022-08-30T02:18:51.663Z,48.5
2022-08-30T02:21:51.666Z,48.5
2022-08-30T02:24:51.659Z,48.5
2022-08-30T02:27:51.662Z,48.5
2022-08-30T02:30:51.685Z,48.5
2022-08-30T02:33:51.655Z,49
2022-08-30T02:36:51.663Z,49
2022-08-30T02:39:51.667Z,49
2022-08-30T02:42:51.656Z,49
2022-08-30T02:45:51.726Z,49
2022-08-30T02:48:51.662Z,49
2022-08-30T02:51:51.663Z,49
2022-08-30T02:54:51.648Z,49
2022-08-30T02:57:51.660Z,49.5
2022-08-30T03:00:51.746Z,49.5
2022-08-30T03:03:51.692Z,49.5
2022-08-30T03:06:51.677Z,49.5
2022-08-30T03:09:51.658Z,49.5
2022-08-30T03:12:51.661Z,49.5
2022-08-30T03:15:51.664Z,49.5
2022-08-30T03:18:51.660Z,49.5
2022-08-30T03:21:51.664Z,49.5
2022-08-30T03:24:51.670Z,49.5
2022-08-30T03:27:51.660Z,49.5
2022-08-30T03:30:51.664Z,49.5
2022-08-30T03:33:51.663Z,49.5
2022-08-30T03:36:51.667Z,49.5
2022-08-30T03:39:51.679Z,49.5
2022-08-30T03:42:51.665Z,49.5
2022-08-30T03:45:51.713Z,50
2022-08-30T03:48:51.667Z,50.5
2022-08-30T03:51:51.665Z,50.5
2022-08-30T03:54:51.685Z,50.5
2022-08-30T03:57:51.664Z,50.5
2022-08-30T04:00:51.755Z,50.5
2022-08-30T04:03:51.662Z,50.5
2022-08-30T04:06:51.662Z,50.5
2022-08-30T04:09:51.681Z,50.5
2022-08-30T04:12:51.671Z,50.5
2022-08-30T04:15:51.672Z,50.5
2022-08-30T04:18:51.660Z,50.5
2022-08-30T04:21:51.665Z,50.5
2022-08-30T04:24:51.679Z,50.5
2022-08-30T04:27:51.665Z,50.5
2022-08-30T04:30:51.685Z,51
2022-08-30T04:33:51.661Z,51
2022-08-30T04:36:51.668Z,51
2022-08-30T04:39:51.676Z,51
2022-08-30T04:42:51.676Z,51
2022-08-30T04:45:51.699Z,51.5
2022-08-30T04:48:51.678Z,51.5
2022-08-30T04:51:51.693Z,51.5
2022-08-30T04:54:51.679Z,51.5
2022-08-30T04:57:51.664Z,51.5
2022-08-30T05:00:51.715Z,51.5
2022-08-30T05:03:51.675Z,51.5
2022-08-30T05:06:51.682Z,51.5
2022-08-30T05:09:51.679Z,51.5
2022-08-30T05:12:51.681Z,51.5
2022-08-30T05:15:51.726Z,52
2022-08-30T05:18:51.681Z,52
2022-08-30T05:21:51.692Z,52
2022-08-30T05:24:51.678Z,52
2022-08-30T05:27:51.675Z,52
2022-08-30T05:30:51.677Z,52
2022-08-30T05:33:51.677Z,52
2022-08-30T05:36:51.691Z,52
2022-08-30T05:39:52.005Z,52
2022-08-30T05:42:51.757Z,52
2022-08-30T05:45:51.683Z,52
2022-08-30T05:48:51.679Z,52
2022-08-30T05:51:51.689Z,52
2022-08-30T05:54:51.690Z,52
2022-08-30T05:57:51.834Z,52
2022-08-30T06:00:51.680Z,52
2022-08-30T06:03:51.730Z,52
2022-08-30T06:06:51.721Z,52
2022-08-30T06:09:51.683Z,52
2022-08-30T06:12:51.686Z,52
2022-08-30T06:15:51.729Z,52
2022-08-30T06:18:51.683Z,52
2022-08-30T06:21:51.693Z,52
2022-08-30T06:24:57.233Z,52
2022-08-30T06:27:54.513Z,52
2022-08-30T06:30:51.722Z,52
2022-08-30T06:33:51.685Z,52
2022-08-30T06:36:51.703Z,52
2022-08-30T06:39:51.688Z,52
2022-08-30T06:42:51.733Z,53
2022-08-30T06:45:51.726Z,53
2022-08-30T06:48:51.716Z,53
2022-08-30T06:51:51.718Z,53
2022-08-30T06:54:51.712Z,53
2022-08-30T06:57:51.728Z,53
2022-08-30T07:00:51.724Z,53
2022-08-30T07:03:51.725Z,52.5
2022-08-30T07:06:51.717Z,52.5
2022-08-30T07:09:51.730Z,52.5
2022-08-30T07:12:51.725Z,52.5
2022-08-30T07:15:51.771Z,52.5
2022-08-30T07:18:51.739Z,52.5
2022-08-30T07:21:51.718Z,52.5
2022-08-30T07:24:51.714Z,52.5
2022-08-30T07:27:51.725Z,52.5
2022-08-30T07:30:51.715Z,52.5
2022-08-30T07:33:51.734Z,52.5
2022-08-30T07:36:51.715Z,52.5
2022-08-30T07:39:51.721Z,52.5
2022-08-30T07:42:51.729Z,52.5
2022-08-30T07:45:51.720Z,52.5
2022-08-30T07:48:51.740Z,52.5
2022-08-30T07:51:51.909Z,52
2022-08-30T07:54:52.881Z,52
2022-08-30T07:57:51.740Z,52
2022-08-30T08:00:51.717Z,52
2022-08-30T08:03:51.716Z,51.5
2022-08-30T08:06:51.730Z,51.5
2022-08-30T08:09:51.726Z,51.5
2022-08-30T08:12:52.190Z,51
2022-08-30T08:15:51.807Z,51
2022-08-30T08:18:51.731Z,50.5
2022-08-30T08:22:04.062Z,50.5
2022-08-30T08:24:51.720Z,50
2022-08-30T08:27:51.741Z,49.5
2022-08-30T08:30:51.798Z,49.5
2022-08-30T08:33:51.770Z,49.5
2022-08-30T08:36:51.721Z,49
2022-08-30T08:39:51.731Z,48.5
2022-08-30T08:42:51.736Z,48.5
2022-08-30T08:45:51.785Z,48.5
2022-08-30T08:48:59.842Z,49
2022-08-30T08:51:51.721Z,49
2022-08-30T08:54:51.726Z,49
2022-08-30T08:57:51.742Z,49
2022-08-30T09:00:51.725Z,48.5
2022-08-30T09:03:51.732Z,48.5
2022-08-30T09:06:51.724Z,48.5
2022-08-30T09:09:51.722Z,48.5
2022-08-30T09:12:51.724Z,48.5
2022-08-30T09:15:54.938Z,48
2022-08-30T09:18:54.765Z,47.5
2022-08-30T09:21:52.836Z,47.5
2022-08-30T09:24:51.729Z,47
2022-08-30T09:27:51.736Z,47
2022-08-30T09:30:51.763Z,46.5
2022-08-30T09:33:51.744Z,47
2022-08-30T09:36:51.756Z,46.5
2022-08-30T09:39:51.758Z,46.5
2022-08-30T09:42:51.738Z,46.5
2022-08-30T09:45:51.757Z,46
2022-08-30T09:48:51.741Z,46
2022-08-30T09:51:51.762Z,45.5
2022-08-30T09:54:51.755Z,45
2022-08-30T09:57:51.741Z,44.5
2022-08-30T10:00:51.837Z,44.5
2022-08-30T10:03:51.778Z,44
2022-08-30T10:06:51.784Z,44
2022-08-30T10:09:51.801Z,43.5
2022-08-30T10:12:51.798Z,43.5
2022-08-30T10:15:51.790Z,43
2022-08-30T10:18:51.794Z,42.5
2022-08-30T10:21:51.799Z,43
2022-08-30T10:24:51.799Z,42.5
2022-08-30T10:27:51.819Z,42.5
2022-08-30T10:30:51.824Z,42
2022-08-30T10:33:51.803Z,41.5
2022-08-30T10:36:51.788Z,41.5
2022-08-30T10:39:51.823Z,41.5
2022-08-30T10:42:51.813Z,41
2022-08-30T10:45:51.819Z,41
2022-08-30T10:48:51.825Z,41
2022-08-30T10:51:51.807Z,41
2022-08-30T10:54:51.824Z,41.5
2022-08-30T10:57:51.809Z,41
2022-08-30T11:00:51.858Z,40.5
2022-08-30T11:03:51.835Z,40.5
2022-08-30T11:06:53.919Z,40.5
2022-08-30T11:09:51.816Z,40.5
2022-08-30T11:12:51.855Z,40.5
2022-08-30T11:15:51.869Z,40.5
2022-08-30T11:18:52.043Z,40.5
2022-08-30T11:21:51.835Z,40.5
2022-08-30T11:24:51.838Z,40
2022-08-30T11:27:51.872Z,40
2022-08-30T11:30:51.816Z,40
2022-08-30T11:33:51.813Z,40
2022-08-30T11:36:51.843Z,40
2022-08-30T11:39:51.830Z,40
2022-08-30T11:42:51.854Z,40
2022-08-30T11:45:51.891Z,39.5
2022-08-30T11:48:54.696Z,39.5
2022-08-30T11:51:58.218Z,39.5
2022-08-30T11:54:53.163Z,39.5
2022-08-30T11:57:51.835Z,39
2022-08-30T12:00:52.790Z,39.5
2022-08-30T12:03:51.823Z,39
2022-08-30T12:06:51.815Z,39
2022-08-30T12:09:51.821Z,39
2022-08-30T12:12:51.844Z,39
2022-08-30T12:15:52.400Z,39
2022-08-30T12:18:51.831Z,39
2022-08-30T12:21:51.844Z,39
2022-08-30T12:24:51.829Z,39
2022-08-30T12:27:51.838Z,39
2022-08-30T12:30:51.848Z,38.5
2022-08-30T12:33:51.863Z,38.5
2022-08-30T12:36:51.847Z,38
2022-08-30T12:39:52.690Z,38
2022-08-30T12:42:51.848Z,38
2022-08-30T12:45:51.928Z,38
2022-08-30T12:48:51.836Z,38
2022-08-30T12:51:51.853Z,38
2022-08-30T12:54:51.829Z,38
2022-08-30T12:57:51.857Z,38
2022-08-30T13:00:51.863Z,38
2022-08-30T13:03:51.837Z,38
2022-08-30T13:06:51.843Z,38.5
2022-08-30T13:09:51.823Z,38
2022-08-30T13:12:51.842Z,38
2022-08-30T13:15:51.859Z,38
2022-08-30T13:18:51.838Z,38
2022-08-30T13:21:51.842Z,38
2022-08-30T13:24:51.839Z,38
2022-08-30T13:27:51.852Z,38
2022-08-30T13:30:51.829Z,38
2022-08-30T13:33:51.854Z,38
2022-08-30T13:36:51.845Z,38
2022-08-30T13:39:51.870Z,38
2022-08-30T13:42:51.831Z,37.5
2022-08-30T13:45:51.890Z,37.5
2022-08-30T13:48:51.831Z,37.5
2022-08-30T13:52:09.682Z,37.5
2022-08-30T13:54:51.887Z,37.5
2022-08-30T13:57:55.935Z,37.5
2022-08-30T14:00:53.799Z,37.5
2022-08-30T14:04:15.634Z,37
2022-08-30T14:07:14.306Z,37.5
2022-08-30T14:09:53.119Z,37.5
2022-08-30T14:12:53.252Z,37
2022-08-30T14:16:26.410Z,37
2022-08-30T14:18:51.844Z,37
2022-08-30T14:21:51.860Z,37
2022-08-30T14:24:51.853Z,37
2022-08-30T14:27:51.845Z,37
2022-08-30T14:30:51.857Z,37
2022-08-30T14:33:51.843Z,37
2022-08-30T14:36:51.857Z,37
2022-08-30T14:39:51.847Z,37
2022-08-30T14:42:51.855Z,37
2022-08-30T14:45:51.861Z,37
2022-08-30T14:48:51.857Z,37
2022-08-30T14:51:51.857Z,37.5
2022-08-30T14:54:55.440Z,37.5
2022-08-30T14:57:51.833Z,37.5
2022-08-30T15:00:51.920Z,37.5
2022-08-30T15:03:51.859Z,37.5
2022-08-30T15:06:51.856Z,37.5
2022-08-30T15:09:51.839Z,37.5
2022-08-30T15:12:51.852Z,38
2022-08-30T15:15:51.866Z,38
2022-08-30T15:18:51.855Z,38
2022-08-30T15:21:51.855Z,38
2022-08-30T15:24:51.861Z,37.5
2022-08-30T15:27:51.851Z,37.5
2022-08-30T15:30:51.854Z,37.5
2022-08-30T15:33:51.866Z,37.5
2022-08-30T15:36:51.866Z,38
2022-08-30T15:39:51.869Z,38
2022-08-30T15:42:51.859Z,38.5
2022-08-30T15:45:51.860Z,38.5
2022-08-30T15:48:51.838Z,38.5
2022-08-30T15:51:53.929Z,38.5
2022-08-30T15:54:51.843Z,38.5
2022-08-30T15:57:51.842Z,38
2022-08-30T16:00:51.869Z,38
2022-08-30T16:03:51.843Z,38.5
2022-08-30T16:06:51.840Z,38.5
2022-08-30T16:09:51.850Z,38.5
2022-08-30T16:12:51.843Z,38.5
2022-08-30T16:15:51.886Z,38.5
2022-08-30T16:18:52.779Z,38.5
2022-08-30T16:21:51.847Z,38.5
2022-08-30T16:24:51.854Z,38.5
2022-08-30T16:27:51.845Z,39
2022-08-30T16:30:51.889Z,39
2022-08-30T16:33:52.354Z,39
2022-08-30T16:36:51.850Z,39
2022-08-30T16:39:51.854Z,39
2022-08-30T16:42:51.885Z,39
2022-08-30T16:45:52.322Z,39
2022-08-30T16:48:51.856Z,38.5
2022-08-30T16:51:52.448Z,38.5
2022-08-30T16:54:51.993Z,38.5
2022-08-30T16:57:51.874Z,38.5
2022-08-30T17:00:51.928Z,39
2022-08-30T17:03:51.858Z,39
2022-08-30T17:06:51.859Z,39
2022-08-30T17:09:51.851Z,39
2022-08-30T17:12:51.863Z,39
2022-08-30T17:15:51.887Z,39
2022-08-30T17:18:51.852Z,39
2022-08-30T17:21:51.859Z,39
2022-08-30T17:24:51.859Z,39
2022-08-30T17:27:51.861Z,39
2022-08-30T17:30:51.860Z,39
2022-08-30T17:33:51.880Z,39
2022-08-30T17:36:51.860Z,39
2022-08-30T17:39:51.863Z,39
2022-08-30T17:42:51.876Z,39.5
2022-08-30T17:45:51.868Z,39.5
2022-08-30T17:48:56.492Z,39.5
2022-08-30T17:51:55.603Z,39.5
2022-08-30T17:54:51.864Z,39.5
2022-08-30T17:57:51.862Z,39.5
2022-08-30T18:00:51.867Z,39.5
2022-08-30T18:03:54.616Z,39.5
2022-08-30T18:06:51.861Z,39.5
2022-08-30T18:09:51.883Z,40
2022-08-30T18:12:51.865Z,40
2022-08-30T18:15:51.941Z,40
2022-08-30T18:18:55.676Z,40.5
2022-08-30T18:21:51.868Z,40.5
2022-08-30T18:24:51.871Z,40.5
2022-08-30T18:27:58.100Z,40.5
2022-08-30T18:30:51.872Z,40.5
2022-08-30T18:33:51.881Z,40.5
2022-08-30T18:36:51.867Z,40.5
2022-08-30T18:39:51.868Z,40.5
2022-08-30T18:42:51.870Z,40.5
2022-08-30T18:45:51.873Z,41
2022-08-30T18:48:51.875Z,41
2022-08-30T18:51:51.874Z,41
2022-08-30T18:54:52.853Z,41
2022-08-30T18:57:51.874Z,41
2022-08-30T19:00:52.836Z,41
2022-08-30T19:03:51.888Z,41
2022-08-30T19:06:51.881Z,41
2022-08-30T19:09:51.895Z,41
2022-08-30T19:12:51.880Z,41
2022-08-30T19:15:51.887Z,41.5
2022-08-30T19:18:51.890Z,41.5
2022-08-30T19:21:51.878Z,41.5
2022-08-30T19:24:51.896Z,41.5
2022-08-30T19:27:51.874Z,41.5
2022-08-30T19:30:51.888Z,41.5
2022-08-30T19:33:51.884Z,41.5
2022-08-30T19:36:51.877Z,41.5
2022-08-30T19:39:51.889Z,41.5
2022-08-30T19:42:51.879Z,41.5
2022-08-30T19:45:51.880Z,41.5
2022-08-30T19:48:51.885Z,41.5
2022-08-30T19:51:51.878Z,41.5
2022-08-30T19:54:51.895Z,41.5
2022-08-30T19:57:51.882Z,41.5
2022-08-30T20:00:51.897Z,41.5
2022-08-30T20:03:52.035Z,41.5
2022-08-30T20:06:51.889Z,41.5
2022-08-30T20:09:51.902Z,41.5
2022-08-30T20:12:51.884Z,41.5
2022-08-30T20:15:55.658Z,42
2022-08-30T20:18:51.892Z,42
2022-08-30T20:21:51.891Z,42.5
2022-08-30T20:24:51.903Z,42.5
2022-08-30T20:27:51.885Z,42.5
2022-08-30T20:30:51.933Z,42.5
2022-08-30T20:33:51.891Z,42.5
2022-08-30T20:36:51.892Z,42.5
2022-08-30T20:39:51.905Z,42.5
2022-08-30T20:42:51.884Z,42.5
2022-08-30T20:45:51.955Z,42.5
2022-08-30T20:48:51.892Z,42.5
2022-08-30T20:51:54.262Z,42.5
2022-08-30T20:54:53.576Z,43
2022-08-30T20:57:51.892Z,43
2022-08-30T21:00:51.897Z,43.5
2022-08-30T21:03:51.904Z,43.5
2022-08-30T21:06:51.894Z,43.5
2022-08-30T21:09:51.898Z,43.5
2022-08-30T21:12:51.890Z,43.5
2022-08-30T21:15:51.897Z,43.5
2022-08-30T21:18:51.889Z,43.5
2022-08-30T21:21:51.898Z,43.5
2022-08-30T21:24:51.908Z,43.5
2022-08-30T21:27:51.892Z,43.5
2022-08-30T21:30:51.961Z,43.5
2022-08-30T21:33:51.902Z,44
2022-08-30T21:36:51.898Z,44
2022-08-30T21:39:51.900Z,44
2022-08-30T21:42:51.898Z,44
2022-08-30T21:45:51.963Z,44.5
2022-08-30T21:48:51.905Z,44.5
2022-08-30T21:51:51.899Z,44.5
2022-08-30T21:54:51.918Z,44.5
2022-08-30T21:57:51.906Z,44.5
2022-08-30T22:00:51.952Z,44.5
2022-08-30T22:03:51.912Z,44.5
2022-08-30T22:06:51.904Z,44.5
2022-08-30T22:09:51.903Z,44.5
2022-08-30T22:12:51.900Z,44.5
2022-08-30T22:15:51.906Z,44.5
2022-08-30T22:18:51.913Z,44.5
2022-08-30T22:21:51.902Z,44.5
2022-08-30T22:24:51.924Z,44.5
2022-08-30T22:27:51.907Z,44.5
2022-08-30T22:30:51.915Z,44.5
2022-08-30T22:33:51.910Z,44.5
2022-08-30T22:36:51.901Z,44.5
2022-08-30T22:39:51.927Z,45
2022-08-30T22:42:51.913Z,45.5
2022-08-30T22:45:51.967Z,45.5
2022-08-30T22:48:51.911Z,45.5
2022-08-30T22:51:51.906Z,45.5
2022-08-30T22:54:51.924Z,45.5
2022-08-30T22:57:51.903Z,45.5
2022-08-30T23:00:54.540Z,45.5
2022-08-30T23:03:51.914Z,45.5
2022-08-30T23:06:51.915Z,45.5
2022-08-30T23:09:51.922Z,45.5
2022-08-30T23:12:51.920Z,45.5
2022-08-30T23:15:51.919Z,45.5
2022-08-30T23:18:51.915Z,45.5
2022-08-30T23:21:51.913Z,45.5
2022-08-30T23:24:51.935Z,45.5
2022-08-30T23:27:51.911Z,45.5
2022-08-30T23:30:51.926Z,45.5
2022-08-30T23:33:51.916Z,45.5
2022-08-30T23:36:51.912Z,45.5
2022-08-30T23:39:51.933Z,46
2022-08-30T23:42:51.916Z,46.5
2022-08-30T23:45:51.977Z,46.5
2022-08-30T23:48:52.091Z,46.5
2022-08-30T23:51:51.923Z,46.5
2022-08-30T23:54:51.937Z,46.5
2022-08-30T23:57:51.926Z,46.5
